Time;durP1;ratioP1;P1;durP2;ratioP2;P2;SDS_P1;SDS_P2;PMS_P1;PMS_P2;Temp;Humidity;BMP_temperature;BMP_pressure;BME280_temperature;BME280_humidity;BME280_pressure;Samples;Min_cycle;Max_cycle;Signal;HPM_P1;HPM_P2
2021/10/16 07:22:58;;;;;;;15.90;8.60;;;;;;;7.37;100.00;99494.22;6320776;22;20201;-84
2021/10/16 07:26:18;;;;;;;15.52;8.02;;;;;;;7.37;100.00;99496.91;6247760;23;20087;-84
2021/10/16 08:27:46;;;;;;;22.65;10.23;;;;;;;9.74;100.00;99519.72;5850942;24;20015;-83
2021/10/16 08:30:16;;;;;;;19.27;10.35;;;;;;;9.64;100.00;99496.47;5988176;24;20039;-80
2021/10/16 08:32:43;;;;;;;19.60;10.98;;;;;;;9.71;100.00;99520.06;5988462;24;20083;-80
2021/10/16 08:35:19;;;;;;;18.90;10.45;;;;;;;9.80;100.00;99523.63;6088215;23;20026;-80
2021/10/16 08:37:46;;;;;;;23.48;11.38;;;;;;;9.72;100.00;99508.16;6190130;22;20091;-81
2021/10/16 08:40:13;;;;;;;17.25;11.77;;;;;;;9.73;100.00;99528.03;6248025;22;20028;-82
2021/10/16 08:42:43;;;;;;;19.85;12.25;;;;;;;9.73;100.00;99515.28;6247606;22;20020;-89
2021/10/16 08:45:34;;;;;;;23.45;13.27;;;;;;;9.75;100.00;99520.56;6249381;22;20043;-81
2021/10/16 08:48:04;;;;;;;25.85;14.63;;;;;;;9.79;100.00;99529.22;6246314;22;20052;-81
2021/10/16 08:50:35;;;;;;;23.38;14.07;;;;;;;9.81;100.00;99528.00;6246452;22;20016;-81
2021/10/16 08:53:05;;;;;;;23.40;13.40;;;;;;;9.86;100.00;99532.94;6223259;22;20079;-81
2021/10/16 08:55:42;;;;;;;22.67;14.07;;;;;;;10.08;100.00;99536.81;6215735;23;20017;-84
2021/10/16 08:58:12;;;;;;;29.38;15.43;;;;;;;10.20;100.00;99542.72;6216750;23;20397;-84
2021/10/16 09:00:54;;;;;;;28.80;14.98;;;;;;;10.20;100.00;99532.69;6216360;23;20021;-85
2021/10/16 09:03:26;;;;;;;28.95;15.40;;;;;;;10.16;100.00;99533.22;6216746;23;20040;-85
2021/10/16 09:06:43;;;;;;;31.38;14.60;;;;;;;10.09;100.00;99528.47;6216990;23;20360;-85
2021/10/16 09:09:12;;;;;;;32.00;16.15;;;;;;;10.23;100.00;99537.78;6215462;23;20040;-84
2021/10/16 09:11:49;;;;;;;31.42;15.55;;;;;;;10.17;100.00;99519.47;6215964;23;20318;-85
2021/10/16 09:14:20;;;;;;;30.35;15.35;;;;;;;10.18;100.00;99518.44;6216738;23;20096;-85
2021/10/16 09:17:44;;;;;;;32.42;15.88;;;;;;;10.12;100.00;99521.00;6216904;23;20020;-84
2021/10/16 09:20:13;;;;;;;27.88;15.52;;;;;;;10.44;100.00;99536.41;6176386;23;20522;-85
2021/10/16 09:23:05;;;;;;;58.23;19.73;;;;;;;10.34;100.00;99522.16;6215212;23;20020;-85
2021/10/16 09:25:32;;;;;;;30.30;16.08;;;;;;;10.41;100.00;99534.88;6215308;23;20471;-85
2021/10/16 09:28:55;;;;;;;37.33;16.63;;;;;;;10.55;100.00;99538.75;6215427;23;20330;-85
2021/10/16 09:31:22;;;;;;;26.00;14.85;;;;;;;10.67;100.00;99525.59;6181097;23;20023;-85
2021/10/16 09:37:51;;;;;;;30.40;14.60;;;;;;;10.97;98.51;99532.13;6215329;23;20051;-84
2021/10/16 09:40:56;;;;;;;30.23;16.05;;;;;;;10.95;98.22;99522.44;6215550;23;20016;-85
2021/10/16 09:43:25;;;;;;;26.50;14.27;;;;;;;11.13;96.86;99524.88;6215507;23;20025;-85
2021/10/16 09:46:16;;;;;;;30.45;14.98;;;;;;;11.10;97.13;99528.78;6215184;23;20020;-85
2021/10/16 09:48:45;;;;;;;29.55;15.57;;;;;;;10.90;97.81;99514.81;6215020;23;20028;-85
2021/10/16 09:51:16;;;;;;;29.63;15.20;;;;;;;11.07;97.28;99523.72;6215197;23;20012;-85
2021/10/16 09:54:25;;;;;;;28.27;13.77;;;;;;;11.02;98.57;99517.09;6216351;23;20017;-84
2021/10/16 09:56:55;;;;;;;27.83;15.38;;;;;;;11.31;97.45;99530.88;6216572;23;20103;-85
2021/10/16 09:59:25;;;;;;;28.42;14.88;;;;;;;11.25;97.68;99500.81;6216391;23;20032;-85
2021/10/16 10:02:27;;;;;;;29.50;15.30;;;;;;;11.12;97.19;99525.88;6215685;23;20039;-84
2021/10/16 10:04:56;;;;;;;29.23;14.75;;;;;;;10.91;98.36;99516.47;6205320;23;20020;-85
2021/10/16 10:07:29;;;;;;;31.77;15.60;;;;;;;11.18;98.62;99529.78;6216244;23;20017;-85
2021/10/16 10:10:20;;;;;;;29.27;15.18;;;;;;;11.23;97.92;99528.22;6216380;23;20012;-85
2021/10/16 10:12:47;;;;;;;25.85;14.35;;;;;;;11.12;97.51;99524.00;6216944;23;20433;-85
2021/10/16 10:15:14;;;;;;;26.73;14.43;;;;;;;11.30;97.62;99529.16;6216241;23;20602;-85
2021/10/16 10:17:43;;;;;;;29.67;15.07;;;;;;;11.18;96.44;99502.56;6216437;23;20019;-85
2021/10/16 10:20:12;;;;;;;28.95;14.13;;;;;;;11.32;95.47;99510.78;6216392;23;20096;-85
2021/10/16 10:22:44;;;;;;;32.00;15.40;;;;;;;11.34;94.89;99513.34;6216479;23;20083;-85
2021/10/16 10:25:22;;;;;;;27.50;14.88;;;;;;;11.46;94.51;99514.59;6215803;23;20392;-85
2021/10/16 10:27:53;;;;;;;27.13;14.68;;;;;;;11.51;94.02;99514.03;6216219;23;20016;-85
2021/10/16 10:30:41;;;;;;;25.08;14.50;;;;;;;11.44;93.50;99496.75;6216664;23;20027;-85
2021/10/16 10:34:10;;;;;;;26.80;14.07;;;;;;;11.35;93.78;99498.69;6216254;23;20508;-85
2021/10/16 10:36:58;;;;;;;29.58;14.57;;;;;;;11.67;93.60;99511.19;6122587;23;20081;-86
2021/10/16 10:39:46;;;;;;;32.13;14.68;;;;;;;11.71;93.54;99516.25;6124095;23;20022;-85
2021/10/16 10:43:12;;;;;;;27.90;14.85;;;;;;;11.59;93.75;99494.94;6124597;23;20391;-84
2021/10/16 10:46:11;;;;;;;25.88;13.98;;;;;;;11.66;94.41;99508.66;6159873;23;20022;-85
2021/10/16 10:48:51;;;;;;;24.48;13.73;;;;;;;11.73;95.13;99493.28;6216097;23;20458;-85
2021/10/16 10:51:27;;;;;;;26.48;14.73;;;;;;;11.59;93.82;99483.16;6216412;23;20024;-85
2021/10/16 10:54:11;;;;;;;23.73;14.15;;;;;;;11.52;94.51;99483.91;6215624;23;20024;-85
2021/10/16 10:56:40;;;;;;;24.27;13.88;;;;;;;11.68;94.50;99498.41;6216108;23;20459;-85
2021/10/16 10:59:10;;;;;;;28.07;14.30;;;;;;;11.60;94.51;99499.31;6216349;23;20107;-85
2021/10/16 11:02:08;;;;;;;22.85;13.27;;;;;;;11.72;95.12;99493.47;6216180;23;20023;-85
2021/10/16 11:04:51;;;;;;;26.55;14.73;;;;;;;11.75;94.19;99504.81;6123960;23;20017;-85
2021/10/16 11:07:30;;;;;;;28.05;14.50;;;;;;;11.73;94.05;99486.97;6205367;23;20041;-85
2021/10/16 11:09:58;;;;;;;28.25;15.63;;;;;;;11.61;93.28;99487.41;6216100;23;20078;-85
2021/10/16 11:12:36;;;;;;;26.23;14.77;;;;;;;11.79;94.21;99486.25;6215992;23;20021;-85
2021/10/16 11:15:04;;;;;;;27.50;14.65;;;;;;;11.81;94.27;99495.06;6215680;23;20017;-85
2021/10/16 11:17:50;;;;;;;36.63;15.65;;;;;;;11.72;93.94;99497.00;6216027;23;20025;-85
2021/10/16 11:23:18;;;;;;;26.67;14.30;;;;;;;11.63;93.29;99487.22;6204275;23;20028;-84
2021/10/16 11:25:57;;;;;;;26.48;15.90;;;;;;;11.67;93.18;99464.06;6215897;23;20352;-85
2021/10/16 11:28:26;;;;;;;28.80;16.13;;;;;;;11.79;93.81;99473.47;6216259;23;20052;-85
2021/10/16 11:30:56;;;;;;;26.40;14.30;;;;;;;11.72;93.09;99450.72;6216445;23;20096;-85
2021/10/16 11:33:27;;;;;;;27.38;14.75;;;;;;;11.82;92.76;99456.75;6215936;23;20095;-85
2021/10/16 11:35:56;;;;;;;23.95;14.73;;;;;;;12.14;92.07;99473.81;6216006;23;20082;-86
2021/10/16 11:38:26;;;;;;;23.48;13.75;;;;;;;12.16;90.27;99462.72;6215273;23;20020;-85
2021/10/16 11:40:54;;;;;;;26.25;14.65;;;;;;;12.45;89.35;99456.41;6216086;23;20020;-85
2021/10/16 11:43:22;;;;;;;25.00;14.35;;;;;;;12.51;88.89;99439.28;6216234;23;20092;-85
2021/10/16 11:45:55;;;;;;;29.90;15.95;;;;;;;12.68;88.31;99431.72;6215647;23;20012;-85
2021/10/16 11:48:26;;;;;;;25.63;13.85;;;;;;;12.69;88.40;99451.66;6215873;23;20497;-86
2021/10/16 11:50:55;;;;;;;28.70;14.88;;;;;;;12.77;88.15;99439.78;6216087;23;20028;-85
2021/10/16 11:53:35;;;;;;;26.13;14.43;;;;;;;12.86;87.93;99430.47;6215908;23;20016;-84
2021/10/16 11:56:07;;;;;;;24.88;14.93;;;;;;;12.75;87.34;99427.19;6215892;23;20020;-85
2021/10/16 11:58:43;;;;;;;23.92;14.20;;;;;;;12.65;87.55;99414.91;6215689;23;20363;-85
2021/10/16 12:01:14;;;;;;;25.60;14.05;;;;;;;12.59;87.60;99421.97;6215870;23;20381;-85
2021/10/16 12:04:03;;;;;;;24.63;14.23;;;;;;;12.77;88.00;99412.50;6216257;23;20437;-85
2021/10/16 12:07:01;;;;;;;25.30;14.35;;;;;;;12.51;87.76;99406.56;6215717;23;20063;-85
2021/10/16 12:09:34;;;;;;;24.92;14.98;;;;;;;12.74;87.56;99413.75;6215711;23;20408;-85
2021/10/16 12:12:01;;;;;;;25.17;13.43;;;;;;;13.07;87.61;99421.44;6215794;23;20083;-85
2021/10/16 12:15:03;;;;;;;23.27;14.05;;;;;;;12.97;86.80;99410.00;6216459;23;20016;-86
2021/10/16 12:17:29;;;;;;;24.35;13.27;;;;;;;13.00;86.76;99418.63;6218114;23;20029;-85
2021/10/16 12:19:58;;;;;;;27.60;14.43;;;;;;;13.09;85.87;99394.78;6217903;23;20096;-85
2021/10/16 12:22:25;;;;;;;25.50;13.52;;;;;;;13.07;86.17;99397.72;6217391;23;20024;-86
2021/10/16 12:25:11;;;;;;;28.60;15.30;;;;;;;13.15;86.52;99399.44;6217339;23;20013;-84
2021/10/16 12:27:38;;;;;;;26.85;13.98;;;;;;;13.39;84.67;99386.47;6217614;23;20348;-86
2021/10/16 12:30:10;;;;;;;22.73;13.73;;;;;;;13.76;84.28;99400.78;6216708;23;20020;-85
2021/10/16 12:32:37;;;;;;;20.92;12.35;;;;;;;13.77;82.47;99397.88;6217050;23;20026;-85
2021/10/16 12:35:19;;;;;;;19.75;12.07;;;;;;;13.87;83.03;99393.94;6216970;23;20440;-85
2021/10/16 12:37:56;;;;;;;22.75;13.68;;;;;;;13.94;81.96;99398.41;6217218;23;20437;-85
2021/10/16 12:40:34;;;;;;;22.75;12.45;;;;;;;14.02;81.94;99402.03;6217435;23;20023;-85
2021/10/16 12:43:04;;;;;;;19.98;12.48;;;;;;;13.95;80.81;99405.53;6217981;23;20048;-85
2021/10/16 12:45:38;;;;;;;17.30;11.18;;;;;;;13.73;81.02;99391.13;6217006;23;20021;-84
2021/10/16 12:48:26;;;;;;;15.52;10.77;;;;;;;13.63;82.37;99396.09;6216768;23;20483;-84
2021/10/16 12:50:57;;;;;;;19.65;12.20;;;;;;;13.66;82.46;99394.88;6218118;23;20095;-85
2021/10/16 12:53:24;;;;;;;18.98;11.50;;;;;;;13.57;83.39;99394.16;6217143;23;20093;-84
2021/10/16 12:55:51;;;;;;;17.98;11.32;;;;;;;13.44;83.54;99386.69;6218047;23;20530;-84
2021/10/16 12:58:19;;;;;;;20.85;12.40;;;;;;;13.49;84.22;99381.50;6219747;23;20318;-85
2021/10/16 13:00:48;;;;;;;19.70;12.15;;;;;;;13.53;84.29;99369.13;6217435;23;20020;-85
2021/10/16 13:03:17;;;;;;;19.52;11.32;;;;;;;13.74;83.71;99378.31;6217076;23;20017;-85
2021/10/16 13:05:44;;;;;;;18.92;11.98;;;;;;;13.68;82.98;99366.28;6215201;23;20135;-85
2021/10/16 13:08:13;;;;;;;19.80;11.70;;;;;;;13.80;81.79;99366.56;6216763;23;20021;-85
2021/10/16 13:10:42;;;;;;;19.92;12.02;;;;;;;13.48;83.03;99366.16;6215722;23;20063;-85
2021/10/16 13:13:10;;;;;;;19.70;11.77;;;;;;;13.66;82.83;99373.84;6217384;23;20021;-86
2021/10/16 13:15:39;;;;;;;20.05;11.57;;;;;;;13.69;83.06;99359.78;6215357;23;20020;-85
2021/10/16 13:18:07;;;;;;;20.02;11.13;;;;;;;13.95;82.64;99364.53;6217136;23;20055;-85
2021/10/16 13:20:38;;;;;;;18.98;11.23;;;;;;;13.93;82.52;99366.66;6216920;23;20025;-85
2021/10/16 13:23:04;;;;;;;17.27;11.38;;;;;;;13.91;81.57;99371.50;6217049;23;20048;-85
2021/10/16 13:25:33;;;;;;;16.58;10.43;;;;;;;13.97;81.84;99367.06;6210811;23;20014;-85
2021/10/16 13:28:00;;;;;;;17.17;10.52;;;;;;;14.18;80.25;99368.88;6216540;23;20041;-84
2021/10/16 13:30:29;;;;;;;18.17;12.27;;;;;;;14.18;80.96;99354.34;6216517;23;20016;-85
2021/10/16 13:32:58;;;;;;;18.33;10.95;;;;;;;14.07;81.30;99369.47;6216611;23;20325;-85
2021/10/16 13:35:51;;;;;;;17.30;10.88;;;;;;;13.90;81.06;99344.34;6216264;23;20377;-85
2021/10/16 13:38:18;;;;;;;16.15;10.30;;;;;;;14.09;81.50;99362.75;6195101;23;20020;-85
2021/10/16 13:40:51;;;;;;;16.83;10.68;;;;;;;14.14;80.56;99349.31;6215970;23;20330;-85
2021/10/16 13:43:18;;;;;;;13.40;9.02;;;;;;;14.07;80.44;99344.84;6216096;23;20017;-85
2021/10/16 13:45:46;;;;;;;16.75;9.65;;;;;;;14.07;80.06;99362.09;6216210;23;20036;-85
2021/10/16 13:48:13;;;;;;;14.00;9.55;;;;;;;13.81;80.97;99344.50;6216953;23;20441;-85
2021/10/16 13:50:40;;;;;;;17.88;9.95;;;;;;;13.95;80.79;99356.34;6216539;23;20035;-84
2021/10/16 13:53:13;;;;;;;18.50;10.00;;;;;;;13.72;81.05;99347.63;6216121;23;20398;-85
2021/10/16 13:55:40;;;;;;;16.83;9.80;;;;;;;13.83;81.89;99363.44;6216110;23;20016;-85
2021/10/16 13:58:46;;;;;;;16.77;10.48;;;;;;;14.08;81.25;99360.22;6215018;23;20426;-85
2021/10/16 14:01:16;;;;;;;14.90;9.18;;;;;;;13.94;81.99;99360.16;6213196;23;20507;-85
2021/10/16 14:03:45;;;;;;;15.52;9.63;;;;;;;13.96;81.10;99354.47;6216468;23;20012;-85
2021/10/16 14:06:12;;;;;;;17.42;10.40;;;;;;;14.07;80.85;99356.63;6216078;23;20017;-85
2021/10/16 14:08:39;;;;;;;14.90;9.23;;;;;;;13.92;82.30;99364.13;6216150;23;20021;-85
2021/10/16 14:11:06;;;;;;;14.38;9.63;;;;;;;13.91;82.24;99355.09;6215725;23;20045;-85
2021/10/16 14:13:33;;;;;;;11.55;8.48;;;;;;;13.96;80.90;99338.09;6218781;23;20043;-85
2021/10/16 14:16:45;;;;;;;14.00;8.80;;;;;;;13.89;80.26;99342.66;6218753;23;20099;-85
2021/10/16 14:19:44;;;;;;;11.30;7.70;;;;;;;13.59;82.32;99342.91;6216288;23;20016;-85
2021/10/16 14:22:11;;;;;;;13.30;8.30;;;;;;;13.77;81.75;99358.78;6216000;23;20016;-85
